Terminal Aerodrome Forecast
Issued by NWS

Home | Current Version | Previous Version | Text Only | Print | Product List | Glossary On
Versions: 1 2 3 4 5 6 7 8 9 10 11 12 13 14 15 16 17 18
000
FTUS42 KGSP 310536
TAFHKY
TAF
KHKY 310536Z 3106/0106 VRB02KT P6SM FEW120 SCT250
     FM310900 00000KT 5SM BR SCT100
     FM311300 VRB03KT P6SM FEW090
     FM311600 22005KT P6SM BKN050 PROB30 3118/3121 4SM -TSRA
      OVC025CB
     FM312100 22006KT P6SM -SHRA VCTS BKN035CB
     FM010000 24005KT P6SM VCTS BKN070CB
     FM010300 32002KT P6SM SCT070
     FM010500 00000KT 5SM BR FEW070=

USA.gov is the U.S. government's official web portal to all federal, state and local government web resources and services.